sensor_id;sensor_type;location;lat;lon;timestamp;pressure;altitude;pressure_sealevel;temperature;humidity
10097;BME280;5087;42.662;23.466;2023-12-20T00:02:27;95828.81;;;-2.91;100.00
10097;BME280;5087;42.662;23.466;2023-12-20T00:04:54;95804.72;;;-3.14;100.00
10097;BME280;5087;42.662;23.466;2023-12-20T00:07:21;95778.22;;;-3.40;100.00
10097;BME280;5087;42.662;23.466;2023-12-20T00:09:49;95829.69;;;-2.97;100.00
10097;BME280;5087;42.662;23.466;2023-12-20T00:12:17;95803.75;;;-3.20;100.00
10097;BME280;5087;42.662;23.466;2023-12-20T00:14:45;95831.44;;;-3.35;100.00
10097;BME280;5087;42.662;23.466;2023-12-20T00:17:15;95789.25;;;-3.68;100.00
10097;BME280;5087;42.662;23.466;2023-12-20T00:19:42;95814.13;;;-3.37;100.00
10097;BME280;5087;42.662;23.466;2023-12-20T00:22:09;95825.19;;;-2.96;100.00
10097;BME280;5087;42.662;23.466;2023-12-20T00:24:36;95805.63;;;-2.83;100.00
10097;BME280;5087;42.662;23.466;2023-12-20T00:27:04;95814.25;;;-2.88;100.00
10097;BME280;5087;42.662;23.466;2023-12-20T00:29:33;95796.44;;;-3.25;100.00
10097;BME280;5087;42.662;23.466;2023-12-20T00:32:02;95814.59;;;-3.22;100.00
10097;BME280;5087;42.662;23.466;2023-12-20T00:34:30;95803.66;;;-3.07;100.00
10097;BME280;5087;42.662;23.466;2023-12-20T00:36:57;95794.50;;;-2.74;100.00
10097;BME280;5087;42.662;23.466;2023-12-20T00:39:24;95755.88;;;-2.76;100.00
10097;BME280;5087;42.662;23.466;2023-12-20T00:41:52;95778.19;;;-2.96;100.00
10097;BME280;5087;42.662;23.466;2023-12-20T00:44:19;95752.34;;;-2.89;100.00
10097;BME280;5087;42.662;23.466;2023-12-20T00:46:47;95764.81;;;-2.71;100.00
10097;BME280;5087;42.662;23.466;2023-12-20T00:49:15;95789.53;;;-3.26;100.00
10097;BME280;5087;42.662;23.466;2023-12-20T00:51:42;95781.31;;;-3.68;100.00
10097;BME280;5087;42.662;23.466;2023-12-20T00:54:09;95781.06;;;-3.92;100.00
10097;BME280;5087;42.662;23.466;2023-12-20T00:56:36;95768.56;;;-4.17;100.00
10097;BME280;5087;42.662;23.466;2023-12-20T00:59:03;95760.19;;;-4.46;100.00
10097;BME280;5087;42.662;23.466;2023-12-20T01:01:31;95771.56;;;-4.38;100.00
10097;BME280;5087;42.662;23.466;2023-12-20T01:04:00;95777.59;;;-4.18;100.00
10097;BME280;5087;42.662;23.466;2023-12-20T01:06:27;95776.63;;;-3.98;100.00
10097;BME280;5087;42.662;23.466;2023-12-20T01:08:54;95763.03;;;-3.83;100.00
10097;BME280;5087;42.662;23.466;2023-12-20T01:11:22;95749.41;;;-3.61;100.00
10097;BME280;5087;42.662;23.466;2023-12-20T01:13:49;95748.41;;;-3.42;100.00
10097;BME280;5087;42.662;23.466;2023-12-20T01:16:17;95730.09;;;-3.50;100.00
10097;BME280;5087;42.662;23.466;2023-12-20T01:18:44;95745.41;;;-3.27;100.00
10097;BME280;5087;42.662;23.466;2023-12-20T01:21:13;95739.19;;;-3.39;100.00
10097;BME280;5087;42.662;23.466;2023-12-20T01:23:40;95713.38;;;-3.51;100.00
10097;BME280;5087;42.662;23.466;2023-12-20T01:26:08;95743.94;;;-3.23;100.00
10097;BME280;5087;42.662;23.466;2023-12-20T01:28:35;95724.84;;;-3.31;100.00
10097;BME280;5087;42.662;23.466;2023-12-20T01:31:02;95724.28;;;-3.40;100.00
10097;BME280;5087;42.662;23.466;2023-12-20T01:33:29;95689.22;;;-3.42;100.00
10097;BME280;5087;42.662;23.466;2023-12-20T01:35:56;95731.03;;;-3.19;100.00
10097;BME280;5087;42.662;23.466;2023-12-20T01:38:25;95713.28;;;-3.44;100.00
10097;BME280;5087;42.662;23.466;2023-12-20T01:40:52;95720.19;;;-3.36;100.00
10097;BME280;5087;42.662;23.466;2023-12-20T01:43:20;95687.34;;;-3.60;100.00
10097;BME280;5087;42.662;23.466;2023-12-20T01:45:47;95688.47;;;-3.93;100.00
10097;BME280;5087;42.662;23.466;2023-12-20T01:48:15;95699.81;;;-4.11;100.00
10097;BME280;5087;42.662;23.466;2023-12-20T01:50:44;95712.38;;;-4.32;100.00
10097;BME280;5087;42.662;23.466;2023-12-20T01:53:13;95686.97;;;-4.79;100.00
10097;BME280;5087;42.662;23.466;2023-12-20T01:55:42;95708.13;;;-4.65;100.00
10097;BME280;5087;42.662;23.466;2023-12-20T01:58:11;95698.19;;;-4.77;100.00
10097;BME280;5087;42.662;23.466;2023-12-20T02:00:39;95691.09;;;-4.83;100.00
10097;BME280;5087;42.662;23.466;2023-12-20T02:03:06;95692.50;;;-4.80;100.00
10097;BME280;5087;42.662;23.466;2023-12-20T02:05:35;95700.84;;;-4.77;100.00
10097;BME280;5087;42.662;23.466;2023-12-20T02:08:02;95689.69;;;-4.92;100.00
10097;BME280;5087;42.662;23.466;2023-12-20T02:10:31;95689.53;;;-4.97;100.00
10097;BME280;5087;42.662;23.466;2023-12-20T02:13:00;95693.19;;;-4.98;100.00
10097;BME280;5087;42.662;23.466;2023-12-20T02:15:27;95684.09;;;-5.09;100.00
10097;BME280;5087;42.662;23.466;2023-12-20T02:17:55;95677.44;;;-5.25;100.00
10097;BME280;5087;42.662;23.466;2023-12-20T02:20:22;95677.03;;;-5.29;100.00
10097;BME280;5087;42.662;23.466;2023-12-20T02:22:50;95678.47;;;-4.87;100.00
10097;BME280;5087;42.662;23.466;2023-12-20T02:25:17;95673.84;;;-4.60;100.00
10097;BME280;5087;42.662;23.466;2023-12-20T02:27:44;95673.63;;;-4.26;100.00
10097;BME280;5087;42.662;23.466;2023-12-20T02:30:15;95669.63;;;-4.10;100.00
10097;BME280;5087;42.662;23.466;2023-12-20T02:32:42;95657.94;;;-4.03;100.00
10097;BME280;5087;42.662;23.466;2023-12-20T02:35:10;95658.88;;;-3.72;100.00
10097;BME280;5087;42.662;23.466;2023-12-20T02:37:37;95656.16;;;-3.65;100.00
10097;BME280;5087;42.662;23.466;2023-12-20T02:40:07;95646.84;;;-3.56;100.00
10097;BME280;5087;42.662;23.466;2023-12-20T02:42:34;95623.13;;;-3.51;100.00
10097;BME280;5087;42.662;23.466;2023-12-20T02:45:01;95644.22;;;-3.74;100.00
10097;BME280;5087;42.662;23.466;2023-12-20T02:47:28;95652.41;;;-3.76;100.00
10097;BME280;5087;42.662;23.466;2023-12-20T02:49:56;95643.34;;;-3.50;100.00
10097;BME280;5087;42.662;23.466;2023-12-20T02:52:24;95644.41;;;-3.20;100.00
10097;BME280;5087;42.662;23.466;2023-12-20T02:54:51;95634.88;;;-3.09;100.00
10097;BME280;5087;42.662;23.466;2023-12-20T02:57:20;95643.00;;;-3.04;100.00
10097;BME280;5087;42.662;23.466;2023-12-20T02:59:47;95646.56;;;-3.66;100.00
10097;BME280;5087;42.662;23.466;2023-12-20T03:02:14;95636.94;;;-4.04;100.00
10097;BME280;5087;42.662;23.466;2023-12-20T03:04:42;95636.72;;;-4.03;100.00
10097;BME280;5087;42.662;23.466;2023-12-20T03:07:09;95639.75;;;-3.99;100.00
10097;BME280;5087;42.662;23.466;2023-12-20T03:09:37;95639.28;;;-3.71;100.00
10097;BME280;5087;42.662;23.466;2023-12-20T03:12:04;95626.38;;;-3.67;100.00
10097;BME280;5087;42.662;23.466;2023-12-20T03:14:33;95614.28;;;-3.44;100.00
10097;BME280;5087;42.662;23.466;2023-12-20T03:17:00;95643.31;;;-3.31;100.00
10097;BME280;5087;42.662;23.466;2023-12-20T03:19:28;95617.50;;;-3.24;100.00
10097;BME280;5087;42.662;23.466;2023-12-20T03:21:55;95637.28;;;-2.89;100.00
10097;BME280;5087;42.662;23.466;2023-12-20T03:24:22;95632.41;;;-3.04;100.00
10097;BME280;5087;42.662;23.466;2023-12-20T03:26:49;95629.84;;;-2.80;100.00
10097;BME280;5087;42.662;23.466;2023-12-20T03:29:16;95622.22;;;-3.07;100.00
10097;BME280;5087;42.662;23.466;2023-12-20T03:31:45;95622.31;;;-2.83;100.00
10097;BME280;5087;42.662;23.466;2023-12-20T03:34:15;95624.19;;;-2.72;100.00
10097;BME280;5087;42.662;23.466;2023-12-20T03:36:42;95564.56;;;-3.37;100.00
10097;BME280;5087;42.662;23.466;2023-12-20T03:39:09;95634.88;;;-2.91;100.00
10097;BME280;5087;42.662;23.466;2023-12-20T03:41:36;95607.94;;;-3.62;100.00
10097;BME280;5087;42.662;23.466;2023-12-20T03:44:04;95638.59;;;-3.85;100.00
10097;BME280;5087;42.662;23.466;2023-12-20T03:46:31;95624.81;;;-3.56;100.00
10097;BME280;5087;42.662;23.466;2023-12-20T03:49:00;95625.25;;;-3.59;100.00
10097;BME280;5087;42.662;23.466;2023-12-20T03:51:27;95612.00;;;-3.41;100.00
10097;BME280;5087;42.662;23.466;2023-12-20T03:53:54;95618.84;;;-3.70;100.00
10097;BME280;5087;42.662;23.466;2023-12-20T03:56:21;95614.72;;;-3.85;100.00
10097;BME280;5087;42.662;23.466;2023-12-20T03:58:48;95621.50;;;-3.89;100.00
10097;BME280;5087;42.662;23.466;2023-12-20T04:01:16;95616.63;;;-3.92;100.00
10097;BME280;5087;42.662;23.466;2023-12-20T04:03:43;95614.03;;;-4.24;100.00
10097;BME280;5087;42.662;23.466;2023-12-20T04:06:16;95609.78;;;-4.50;100.00
10097;BME280;5087;42.662;23.466;2023-12-20T04:08:43;95594.22;;;-4.65;100.00
10097;BME280;5087;42.662;23.466;2023-12-20T04:11:10;95571.38;;;-4.91;100.00
10097;BME280;5087;42.662;23.466;2023-12-20T04:13:38;95608.22;;;-4.58;100.00
10097;BME280;5087;42.662;23.466;2023-12-20T04:16:06;95597.44;;;-4.63;100.00
10097;BME280;5087;42.662;23.466;2023-12-20T04:18:33;95599.09;;;-4.37;100.00
10097;BME280;5087;42.662;23.466;2023-12-20T04:21:01;95603.56;;;-4.37;100.00
10097;BME280;5087;42.662;23.466;2023-12-20T04:23:29;95604.69;;;-4.52;100.00
10097;BME280;5087;42.662;23.466;2023-12-20T04:25:56;95599.25;;;-4.57;100.00
10097;BME280;5087;42.662;23.466;2023-12-20T04:28:23;95583.38;;;-4.38;100.00
10097;BME280;5087;42.662;23.466;2023-12-20T04:30:50;95594.28;;;-4.03;100.00
10097;BME280;5087;42.662;23.466;2023-12-20T04:33:25;95575.44;;;-3.94;100.00
10097;BME280;5087;42.662;23.466;2023-12-20T04:35:54;95578.16;;;-3.83;100.00
10097;BME280;5087;42.662;23.466;2023-12-20T04:38:23;95564.03;;;-3.95;100.00
10097;BME280;5087;42.662;23.466;2023-12-20T04:40:51;95576.31;;;-3.63;100.00
10097;BME280;5087;42.662;23.466;2023-12-20T04:43:19;95570.81;;;-3.80;100.00
10097;BME280;5087;42.662;23.466;2023-12-20T04:45:46;95582.44;;;-3.63;100.00
10097;BME280;5087;42.662;23.466;2023-12-20T04:48:13;95572.13;;;-3.90;100.00
10097;BME280;5087;42.662;23.466;2023-12-20T04:50:41;95565.59;;;-4.31;100.00
10097;BME280;5087;42.662;23.466;2023-12-20T04:53:08;95574.34;;;-4.56;100.00
10097;BME280;5087;42.662;23.466;2023-12-20T04:55:35;95549.59;;;-4.68;100.00
10097;BME280;5087;42.662;23.466;2023-12-20T04:58:04;95536.13;;;-4.92;100.00
10097;BME280;5087;42.662;23.466;2023-12-20T05:00:34;95557.31;;;-4.67;100.00
10097;BME280;5087;42.662;23.466;2023-12-20T05:03:02;95571.31;;;-4.59;100.00
10097;BME280;5087;42.662;23.466;2023-12-20T05:05:30;95569.72;;;-4.61;100.00
10097;BME280;5087;42.662;23.466;2023-12-20T05:07:57;95548.94;;;-4.89;100.00
10097;BME280;5087;42.662;23.466;2023-12-20T05:10:27;95572.53;;;-4.81;100.00
10097;BME280;5087;42.662;23.466;2023-12-20T05:12:54;95557.66;;;-4.82;100.00
10097;BME280;5087;42.662;23.466;2023-12-20T05:15:23;95571.06;;;-4.51;100.00
10097;BME280;5087;42.662;23.466;2023-12-20T05:17:53;95554.78;;;-4.30;100.00
10097;BME280;5087;42.662;23.466;2023-12-20T05:20:20;95537.25;;;-4.56;100.00
10097;BME280;5087;42.662;23.466;2023-12-20T05:22:48;95565.16;;;-4.79;100.00
10097;BME280;5087;42.662;23.466;2023-12-20T05:25:16;95538.16;;;-4.94;100.00
10097;BME280;5087;42.662;23.466;2023-12-20T05:27:43;95527.78;;;-4.96;100.00
10097;BME280;5087;42.662;23.466;2023-12-20T05:30:11;95538.75;;;-4.92;100.00
10097;BME280;5087;42.662;23.466;2023-12-20T05:32:43;95527.41;;;-4.99;100.00
10097;BME280;5087;42.662;23.466;2023-12-20T05:35:10;95520.88;;;-4.97;100.00
10097;BME280;5087;42.662;23.466;2023-12-20T05:37:37;95537.59;;;-4.96;100.00
10097;BME280;5087;42.662;23.466;2023-12-20T05:40:05;95539.16;;;-4.88;100.00
10097;BME280;5087;42.662;23.466;2023-12-20T05:42:36;95530.06;;;-4.99;100.00
10097;BME280;5087;42.662;23.466;2023-12-20T05:45:03;95540.25;;;-4.71;100.00
10097;BME280;5087;42.662;23.466;2023-12-20T05:47:31;95538.41;;;-4.70;100.00
10097;BME280;5087;42.662;23.466;2023-12-20T05:50:00;95521.97;;;-4.79;100.00
10097;BME280;5087;42.662;23.466;2023-12-20T05:52:29;95525.88;;;-4.82;100.00
10097;BME280;5087;42.662;23.466;2023-12-20T05:54:57;95505.06;;;-5.03;100.00
10097;BME280;5087;42.662;23.466;2023-12-20T05:57:27;95522.78;;;-4.79;100.00
10097;BME280;5087;42.662;23.466;2023-12-20T05:59:58;95517.91;;;-4.82;100.00
10097;BME280;5087;42.662;23.466;2023-12-20T06:02:25;95502.41;;;-4.78;100.00
10097;BME280;5087;42.662;23.466;2023-12-20T06:04:54;95497.97;;;-4.40;100.00
10097;BME280;5087;42.662;23.466;2023-12-20T06:07:26;95506.34;;;-4.37;100.00
10097;BME280;5087;42.662;23.466;2023-12-20T06:09:53;95510.09;;;-4.51;100.00
10097;BME280;5087;42.662;23.466;2023-12-20T06:12:21;95518.88;;;-4.51;100.00
10097;BME280;5087;42.662;23.466;2023-12-20T06:14:50;95493.69;;;-4.60;100.00
10097;BME280;5087;42.662;23.466;2023-12-20T06:17:18;95492.91;;;-4.61;100.00
10097;BME280;5087;42.662;23.466;2023-12-20T06:19:45;95521.91;;;-4.29;100.00
10097;BME280;5087;42.662;23.466;2023-12-20T06:22:13;95519.34;;;-4.35;100.00
10097;BME280;5087;42.662;23.466;2023-12-20T06:24:42;95524.44;;;-3.97;100.00
10097;BME280;5087;42.662;23.466;2023-12-20T06:27:09;95514.38;;;-4.06;100.00
10097;BME280;5087;42.662;23.466;2023-12-20T06:29:37;95517.88;;;-3.94;100.00
10097;BME280;5087;42.662;23.466;2023-12-20T06:32:05;95519.47;;;-3.56;100.00
10097;BME280;5087;42.662;23.466;2023-12-20T06:34:32;95517.22;;;-3.40;100.00
10097;BME280;5087;42.662;23.466;2023-12-20T06:36:59;95522.19;;;-3.13;100.00
10097;BME280;5087;42.662;23.466;2023-12-20T06:39:26;95505.41;;;-3.26;100.00
10097;BME280;5087;42.662;23.466;2023-12-20T06:41:55;95482.03;;;-3.05;100.00
10097;BME280;5087;42.662;23.466;2023-12-20T06:44:25;95507.94;;;-2.89;100.00
10097;BME280;5087;42.662;23.466;2023-12-20T06:46:52;95499.28;;;-2.84;100.00
10097;BME280;5087;42.662;23.466;2023-12-20T06:49:20;95500.22;;;-2.66;100.00
10097;BME280;5087;42.662;23.466;2023-12-20T06:51:52;95504.91;;;-3.04;100.00
10097;BME280;5087;42.662;23.466;2023-12-20T06:54:19;95501.16;;;-3.27;100.00
10097;BME280;5087;42.662;23.466;2023-12-20T06:56:46;95473.59;;;-3.75;100.00
10097;BME280;5087;42.662;23.466;2023-12-20T06:59:17;95489.59;;;-3.82;100.00
10097;BME280;5087;42.662;23.466;2023-12-20T07:01:47;95505.16;;;-3.85;100.00
10097;BME280;5087;42.662;23.466;2023-12-20T07:04:15;95492.69;;;-3.66;100.00
10097;BME280;5087;42.662;23.466;2023-12-20T07:06:45;95500.59;;;-3.47;100.00
10097;BME280;5087;42.662;23.466;2023-12-20T07:09:14;95440.22;;;-3.83;100.00
10097;BME280;5087;42.662;23.466;2023-12-20T07:11:41;95469.91;;;-3.74;100.00
10097;BME280;5087;42.662;23.466;2023-12-20T07:14:08;95453.25;;;-3.81;100.00
10097;BME280;5087;42.662;23.466;2023-12-20T07:16:38;95483.44;;;-3.63;100.00
10097;BME280;5087;42.662;23.466;2023-12-20T07:19:06;95484.31;;;-3.51;100.00
10097;BME280;5087;42.662;23.466;2023-12-20T07:21:36;95449.94;;;-3.76;100.00
10097;BME280;5087;42.662;23.466;2023-12-20T07:24:04;95478.22;;;-3.70;100.00
10097;BME280;5087;42.662;23.466;2023-12-20T07:26:31;95472.66;;;-3.80;100.00
10097;BME280;5087;42.662;23.466;2023-12-20T07:29:00;95471.16;;;-3.76;100.00
10097;BME280;5087;42.662;23.466;2023-12-20T07:31:30;95480.44;;;-3.86;100.00
10097;BME280;5087;42.662;23.466;2023-12-20T07:33:59;95479.88;;;-3.88;100.00
10097;BME280;5087;42.662;23.466;2023-12-20T07:36:26;95476.97;;;-3.68;100.00
10097;BME280;5087;42.662;23.466;2023-12-20T07:38:53;95462.50;;;-3.53;100.00
10097;BME280;5087;42.662;23.466;2023-12-20T07:41:20;95473.31;;;-3.55;100.00
10097;BME280;5087;42.662;23.466;2023-12-20T07:43:49;95479.84;;;-3.69;100.00
10097;BME280;5087;42.662;23.466;2023-12-20T07:46:16;95473.44;;;-3.61;100.00
10097;BME280;5087;42.662;23.466;2023-12-20T07:48:48;95461.63;;;-3.96;100.00
10097;BME280;5087;42.662;23.466;2023-12-20T07:51:17;95475.38;;;-3.87;100.00
10097;BME280;5087;42.662;23.466;2023-12-20T07:53:44;95451.53;;;-4.06;100.00
10097;BME280;5087;42.662;23.466;2023-12-20T07:56:15;95454.44;;;-3.77;100.00
10097;BME280;5087;42.662;23.466;2023-12-20T07:58:43;95444.34;;;-3.87;100.00
10097;BME280;5087;42.662;23.466;2023-12-20T08:01:10;95460.63;;;-3.83;100.00
10097;BME280;5087;42.662;23.466;2023-12-20T08:03:38;95459.59;;;-3.82;100.00
10097;BME280;5087;42.662;23.466;2023-12-20T08:06:05;95457.41;;;-3.55;100.00
10097;BME280;5087;42.662;23.466;2023-12-20T08:08:37;95459.06;;;-3.42;100.00
10097;BME280;5087;42.662;23.466;2023-12-20T08:11:04;95457.63;;;-3.14;100.00
10097;BME280;5087;42.662;23.466;2023-12-20T08:13:31;95442.34;;;-3.42;100.00
10097;BME280;5087;42.662;23.466;2023-12-20T08:15:58;95448.09;;;-3.45;100.00
10097;BME280;5087;42.662;23.466;2023-12-20T08:18:25;95451.09;;;-3.42;100.00
10097;BME280;5087;42.662;23.466;2023-12-20T08:20:52;95441.63;;;-2.95;100.00
10097;BME280;5087;42.662;23.466;2023-12-20T08:23:19;95430.50;;;-3.28;100.00
10097;BME280;5087;42.662;23.466;2023-12-20T08:25:51;95421.66;;;-3.40;100.00
10097;BME280;5087;42.662;23.466;2023-12-20T08:28:19;95450.88;;;-2.74;100.00
10097;BME280;5087;42.662;23.466;2023-12-20T08:30:46;95442.44;;;-2.71;100.00
10097;BME280;5087;42.662;23.466;2023-12-20T08:33:13;95438.13;;;-3.20;100.00
10097;BME280;5087;42.662;23.466;2023-12-20T08:35:41;95443.28;;;-3.25;100.00
10097;BME280;5087;42.662;23.466;2023-12-20T08:38:10;95433.81;;;-3.32;100.00
10097;BME280;5087;42.662;23.466;2023-12-20T08:40:38;95396.09;;;-3.23;100.00
10097;BME280;5087;42.662;23.466;2023-12-20T08:43:07;95404.53;;;-3.02;100.00
10097;BME280;5087;42.662;23.466;2023-12-20T08:45:34;95382.06;;;-3.54;100.00
10097;BME280;5087;42.662;23.466;2023-12-20T08:48:02;95424.16;;;-3.57;100.00
10097;BME280;5087;42.662;23.466;2023-12-20T08:50:31;95409.75;;;-3.61;100.00
10097;BME280;5087;42.662;23.466;2023-12-20T08:53:01;95401.25;;;-3.40;100.00
10097;BME280;5087;42.662;23.466;2023-12-20T08:55:28;95395.84;;;-3.45;100.00
10097;BME280;5087;42.662;23.466;2023-12-20T08:57:57;95385.59;;;-3.72;100.00
10097;BME280;5087;42.662;23.466;2023-12-20T09:00:25;95357.47;;;-3.61;100.00
10097;BME280;5087;42.662;23.466;2023-12-20T09:02:53;95369.16;;;-3.50;100.00
10097;BME280;5087;42.662;23.466;2023-12-20T09:05:21;95383.06;;;-3.24;100.00
10097;BME280;5087;42.662;23.466;2023-12-20T09:07:48;95379.38;;;-3.23;100.00
10097;BME280;5087;42.662;23.466;2023-12-20T09:10:15;95382.22;;;-3.25;100.00
10097;BME280;5087;42.662;23.466;2023-12-20T09:12:47;95367.69;;;-3.34;100.00
10097;BME280;5087;42.662;23.466;2023-12-20T09:15:14;95354.78;;;-3.19;100.00
10097;BME280;5087;42.662;23.466;2023-12-20T09:17:44;95350.16;;;-2.88;100.00
10097;BME280;5087;42.662;23.466;2023-12-20T09:20:11;95352.69;;;-2.93;100.00
10097;BME280;5087;42.662;23.466;2023-12-20T09:22:39;95346.00;;;-3.07;100.00
10097;BME280;5087;42.662;23.466;2023-12-20T09:25:09;95327.50;;;-3.02;100.00
10097;BME280;5087;42.662;23.466;2023-12-20T09:27:36;95325.91;;;-3.03;100.00
10097;BME280;5087;42.662;23.466;2023-12-20T09:30:10;95320.94;;;-2.99;100.00
10097;BME280;5087;42.662;23.466;2023-12-20T09:32:43;95298.44;;;-3.21;100.00
10097;BME280;5087;42.662;23.466;2023-12-20T09:35:11;95297.72;;;-2.80;100.00
10097;BME280;5087;42.662;23.466;2023-12-20T09:37:39;95276.56;;;-2.46;100.00
10097;BME280;5087;42.662;23.466;2023-12-20T09:40:13;95309.56;;;-2.18;100.00
10097;BME280;5087;42.662;23.466;2023-12-20T09:42:48;95307.06;;;-2.90;100.00
10097;BME280;5087;42.662;23.466;2023-12-20T09:45:20;95279.88;;;-2.68;100.00
10097;BME280;5087;42.662;23.466;2023-12-20T09:47:50;95268.25;;;-2.91;100.00
10097;BME280;5087;42.662;23.466;2023-12-20T09:50:20;95293.78;;;-2.90;100.00
10097;BME280;5087;42.662;23.466;2023-12-20T09:52:50;95282.31;;;-2.78;100.00
10097;BME280;5087;42.662;23.466;2023-12-20T09:55:18;95285.50;;;-2.24;100.00
10097;BME280;5087;42.662;23.466;2023-12-20T09:57:46;95255.88;;;-2.44;100.00
10097;BME280;5087;42.662;23.466;2023-12-20T10:00:14;95270.56;;;-2.42;100.00
10097;BME280;5087;42.662;23.466;2023-12-20T10:02:48;95258.84;;;-2.58;100.00
10097;BME280;5087;42.662;23.466;2023-12-20T10:05:18;95230.34;;;-2.45;100.00
10097;BME280;5087;42.662;23.466;2023-12-20T10:07:49;95252.34;;;-2.33;100.00
10097;BME280;5087;42.662;23.466;2023-12-20T10:10:17;95230.72;;;-2.82;100.00
10097;BME280;5087;42.662;23.466;2023-12-20T10:13:01;95256.31;;;-2.35;100.00
10097;BME280;5087;42.662;23.466;2023-12-20T10:15:30;95233.91;;;-2.40;100.00
10097;BME280;5087;42.662;23.466;2023-12-20T10:17:57;95248.00;;;-2.39;100.00
10097;BME280;5087;42.662;23.466;2023-12-20T10:20:27;95241.84;;;-2.28;100.00
10097;BME280;5087;42.662;23.466;2023-12-20T10:22:57;95193.34;;;-2.01;100.00
10097;BME280;5087;42.662;23.466;2023-12-20T10:25:26;95214.78;;;-1.91;100.00
10097;BME280;5087;42.662;23.466;2023-12-20T10:28:09;95212.28;;;-1.63;100.00
10097;BME280;5087;42.662;23.466;2023-12-20T10:30:37;95190.09;;;-1.69;100.00
10097;BME280;5087;42.662;23.466;2023-12-20T10:33:05;95218.00;;;-1.54;100.00
10097;BME280;5087;42.662;23.466;2023-12-20T10:35:35;95200.88;;;-1.02;100.00
10097;BME280;5087;42.662;23.466;2023-12-20T10:38:05;95193.94;;;-0.81;100.00
10097;BME280;5087;42.662;23.466;2023-12-20T10:40:34;95188.22;;;-1.12;100.00
10097;BME280;5087;42.662;23.466;2023-12-20T10:43:03;95180.72;;;-1.54;100.00
10097;BME280;5087;42.662;23.466;2023-12-20T10:45:35;95155.63;;;-1.98;100.00
10097;BME280;5087;42.662;23.466;2023-12-20T10:48:06;95175.03;;;-1.80;100.00
10097;BME280;5087;42.662;23.466;2023-12-20T10:50:38;95150.44;;;-2.04;100.00
10097;BME280;5087;42.662;23.466;2023-12-20T10:53:06;95182.53;;;-1.77;100.00
10097;BME280;5087;42.662;23.466;2023-12-20T10:55:37;95171.47;;;-1.30;100.00
10097;BME280;5087;42.662;23.466;2023-12-20T10:58:07;95161.09;;;-1.48;100.00
10097;BME280;5087;42.662;23.466;2023-12-20T11:00:39;95143.97;;;-1.57;100.00
10097;BME280;5087;42.662;23.466;2023-12-20T11:03:09;95150.53;;;-1.43;100.00
10097;BME280;5087;42.662;23.466;2023-12-20T11:05:42;95142.38;;;-1.14;100.00
10097;BME280;5087;42.662;23.466;2023-12-20T11:08:19;95145.41;;;-1.28;100.00
10097;BME280;5087;42.662;23.466;2023-12-20T11:10:56;95134.19;;;-1.30;100.00
10097;BME280;5087;42.662;23.466;2023-12-20T11:13:35;95137.16;;;-1.26;100.00
10097;BME280;5087;42.662;23.466;2023-12-20T11:16:19;95117.34;;;-1.57;100.00
10097;BME280;5087;42.662;23.466;2023-12-20T11:18:53;95108.28;;;-1.56;100.00
10097;BME280;5087;42.662;23.466;2023-12-20T11:21:21;95111.88;;;-1.23;100.00
10097;BME280;5087;42.662;23.466;2023-12-20T11:23:54;95121.44;;;-1.28;100.00
10097;BME280;5087;42.662;23.466;2023-12-20T11:26:23;95084.69;;;-1.25;100.00
10097;BME280;5087;42.662;23.466;2023-12-20T11:28:54;95088.09;;;-1.08;100.00
10097;BME280;5087;42.662;23.466;2023-12-20T11:31:21;95074.06;;;-0.98;100.00
10097;BME280;5087;42.662;23.466;2023-12-20T11:33:49;95076.19;;;-1.00;100.00
10097;BME280;5087;42.662;23.466;2023-12-20T11:36:18;95093.97;;;-1.06;100.00
10097;BME280;5087;42.662;23.466;2023-12-20T11:38:56;95033.78;;;-1.29;100.00
10097;BME280;5087;42.662;23.466;2023-12-20T11:41:24;95070.00;;;-1.28;100.00
10097;BME280;5087;42.662;23.466;2023-12-20T11:43:53;95066.53;;;-0.79;100.00
10097;BME280;5087;42.662;23.466;2023-12-20T11:46:20;95039.53;;;-0.88;100.00
10097;BME280;5087;42.662;23.466;2023-12-20T11:48:48;95070.75;;;-0.56;100.00
10097;BME280;5087;42.662;23.466;2023-12-20T11:51:16;95041.31;;;-0.66;100.00
10097;BME280;5087;42.662;23.466;2023-12-20T11:53:43;95033.66;;;-0.25;100.00
10097;BME280;5087;42.662;23.466;2023-12-20T11:56:12;95055.84;;;-0.14;100.00
10097;BME280;5087;42.662;23.466;2023-12-20T11:58:39;95037.75;;;-0.77;100.00
10097;BME280;5087;42.662;23.466;2023-12-20T12:01:07;95035.84;;;-0.49;100.00
10097;BME280;5087;42.662;23.466;2023-12-20T12:03:34;95024.53;;;-0.67;100.00
10097;BME280;5087;42.662;23.466;2023-12-20T12:06:01;95016.09;;;-0.53;100.00
10097;BME280;5087;42.662;23.466;2023-12-20T12:08:30;95033.88;;;-0.64;100.00
10097;BME280;5087;42.662;23.466;2023-12-20T12:10:57;94979.47;;;-1.01;100.00
10097;BME280;5087;42.662;23.466;2023-12-20T12:13:26;94983.59;;;-0.83;100.00
10097;BME280;5087;42.662;23.466;2023-12-20T12:15:54;94995.19;;;-0.99;100.00
10097;BME280;5087;42.662;23.466;2023-12-20T12:18:22;94976.19;;;-1.08;100.00
10097;BME280;5087;42.662;23.466;2023-12-20T12:20:49;94964.53;;;-1.02;100.00
10097;BME280;5087;42.662;23.466;2023-12-20T12:23:22;94978.22;;;-1.20;100.00
10097;BME280;5087;42.662;23.466;2023-12-20T12:25:50;94991.84;;;-0.84;100.00
10097;BME280;5087;42.662;23.466;2023-12-20T12:28:18;94984.78;;;-0.68;100.00
10097;BME280;5087;42.662;23.466;2023-12-20T12:30:57;94989.09;;;-0.19;100.00
10097;BME280;5087;42.662;23.466;2023-12-20T12:33:25;94976.31;;;-0.22;100.00
10097;BME280;5087;42.662;23.466;2023-12-20T12:35:52;94990.34;;;0.11;100.00
10097;BME280;5087;42.662;23.466;2023-12-20T12:38:20;94967.00;;;-0.14;100.00
10097;BME280;5087;42.662;23.466;2023-12-20T12:40:49;94981.75;;;-0.82;100.00
10097;BME280;5087;42.662;23.466;2023-12-20T12:43:19;94972.06;;;-0.93;100.00
10097;BME280;5087;42.662;23.466;2023-12-20T12:45:46;94977.25;;;-1.09;100.00
10097;BME280;5087;42.662;23.466;2023-12-20T12:48:18;94988.63;;;-0.86;100.00
10097;BME280;5087;42.662;23.466;2023-12-20T12:50:46;94977.81;;;-1.07;100.00
10097;BME280;5087;42.662;23.466;2023-12-20T12:53:16;94979.78;;;-0.59;100.00
10097;BME280;5087;42.662;23.466;2023-12-20T12:55:43;94969.13;;;-1.24;100.00
10097;BME280;5087;42.662;23.466;2023-12-20T12:58:11;94959.78;;;-0.94;100.00